createdAt,value
2018-08-16T00:00:15.035Z,0
2018-08-16T00:01:25.007Z,0
2018-08-16T00:02:34.478Z,0
2018-08-16T00:03:44.439Z,0
2018-08-16T00:04:54.412Z,0
2018-08-16T00:06:04.388Z,0
2018-08-16T00:07:14.091Z,0
2018-08-16T00:08:24.078Z,0
2018-08-16T00:09:33.776Z,0
2018-08-16T00:10:43.225Z,0
2018-08-16T00:11:52.940Z,0
2018-08-16T00:13:02.902Z,0
2018-08-16T00:14:12.625Z,0
2018-08-16T00:15:22.608Z,0
2018-08-16T00:16:32.584Z,0
2018-08-16T00:17:42.303Z,0
2018-08-16T00:18:52.004Z,0
2018-08-16T00:20:01.995Z,0
2018-08-16T00:21:11.956Z,0
2018-08-16T00:22:21.397Z,0
2018-08-16T00:23:31.368Z,0
2018-08-16T00:24:41.334Z,0
2018-08-16T00:25:51.043Z,0
2018-08-16T00:27:01.003Z,0
2018-08-16T00:28:10.717Z,0
2018-08-16T00:29:20.679Z,0
2018-08-16T00:30:30.648Z,0
2018-08-16T00:31:40.605Z,0
2018-08-16T00:32:50.567Z,0
2018-08-16T00:34:00.537Z,0
2018-08-16T00:35:10.243Z,0
2018-08-16T00:36:20.217Z,0
2018-08-16T00:37:30.204Z,0
2018-08-16T00:38:40.175Z,0
2018-08-16T00:39:50.134Z,0
2018-08-16T00:41:00.105Z,0
2018-08-16T00:42:09.816Z,0
2018-08-16T00:43:19.778Z,0
2018-08-16T00:44:29.492Z,0
2018-08-16T00:45:39.464Z,0
2018-08-16T00:46:49.434Z,0
2018-08-16T00:47:59.393Z,0
2018-08-16T00:49:08.596Z,0
2018-08-16T00:50:18.305Z,0
2018-08-16T00:51:28.259Z,0
2018-08-16T00:52:37.728Z,0
2018-08-16T00:53:47.689Z,0
2018-08-16T00:54:57.655Z,0
2018-08-16T00:56:07.656Z,0
2018-08-16T00:57:17.370Z,0
2018-08-16T00:58:27.342Z,0
2018-08-16T00:59:37.053Z,0
2018-08-16T01:00:47.032Z,0
2018-08-16T01:01:56.983Z,0
2018-08-16T01:03:06.965Z,0
2018-08-16T01:04:16.933Z,0
2018-08-16T01:05:26.900Z,0
2018-08-16T01:06:36.869Z,0
2018-08-16T01:07:46.854Z,0
2018-08-16T01:08:56.834Z,0
2018-08-16T01:10:06.556Z,0
2018-08-16T01:11:16.565Z,0
2018-08-16T01:12:26.539Z,0
2018-08-16T01:13:36.492Z,0
2018-08-16T01:14:46.202Z,0
2018-08-16T01:15:55.912Z,0
2018-08-16T01:17:05.889Z,0
2018-08-16T01:18:15.605Z,0
2018-08-16T01:19:25.603Z,0
2018-08-16T01:20:35.576Z,0
2018-08-16T01:21:45.278Z,0
2018-08-16T01:22:54.983Z,0
2018-08-16T01:24:04.690Z,0
2018-08-16T01:25:14.391Z,0
2018-08-16T01:26:24.382Z,0
2018-08-16T01:27:34.090Z,0
2018-08-16T01:28:43.799Z,0
2018-08-16T01:29:53.253Z,0
2018-08-16T01:31:03.226Z,0
2018-08-16T01:32:13.184Z,0
2018-08-16T01:33:23.144Z,0
2018-08-16T01:34:32.857Z,0
2018-08-16T01:35:43.334Z,0
2018-08-16T01:36:53.072Z,0
2018-08-16T01:38:02.844Z,0
2018-08-16T01:39:12.289Z,0
2018-08-16T01:40:21.994Z,0
2018-08-16T01:41:31.973Z,0
2018-08-16T01:42:41.941Z,0
2018-08-16T01:43:51.900Z,0
2018-08-16T01:45:01.609Z,0
2018-08-16T01:46:11.317Z,0
2018-08-16T01:47:21.296Z,0
2018-08-16T01:48:31.262Z,0
2018-08-16T01:49:41.245Z,0
2018-08-16T01:50:51.208Z,0
2018-08-16T01:52:00.921Z,0
2018-08-16T01:53:10.637Z,0
2018-08-16T01:54:20.619Z,0
2018-08-16T01:55:30.593Z,0
2018-08-16T01:56:40.550Z,0
2018-08-16T01:57:50.560Z,0
2018-08-16T01:59:00.520Z,0
2018-08-16T02:00:10.232Z,0
2018-08-16T02:01:19.945Z,0
2018-08-16T02:02:29.917Z,0
2018-08-16T02:03:39.879Z,0
2018-08-16T02:04:49.587Z,0
2018-08-16T02:05:59.573Z,0
2018-08-16T02:07:09.547Z,0
2018-08-16T02:08:19.507Z,0
2018-08-16T02:09:29.230Z,0
2018-08-16T02:10:39.195Z,0
2018-08-16T02:11:49.153Z,0
2018-08-16T02:12:59.124Z,0
2018-08-16T02:14:09.088Z,0
2018-08-16T02:15:19.040Z,0
2018-08-16T02:16:28.741Z,0
2018-08-16T02:17:38.442Z,0
2018-08-16T02:18:48.144Z,0
2018-08-16T02:19:57.335Z,0
2018-08-16T02:21:07.042Z,0
2018-08-16T02:22:17.009Z,0
2018-08-16T02:23:26.974Z,0
2018-08-16T02:24:36.942Z,0
2018-08-16T02:25:46.645Z,0
2018-08-16T02:26:56.354Z,0
2018-08-16T02:28:06.320Z,0
2018-08-16T02:29:16.016Z,0
2018-08-16T02:30:25.731Z,0
2018-08-16T02:31:35.704Z,0
2018-08-16T02:32:45.685Z,0
2018-08-16T02:33:55.139Z,0
2018-08-16T02:35:05.125Z,0
2018-08-16T02:36:15.112Z,0
2018-08-16T02:37:25.091Z,0
2018-08-16T02:38:34.797Z,0
2018-08-16T02:39:44.496Z,0
2018-08-16T02:40:54.476Z,0
2018-08-16T02:42:04.192Z,0
2018-08-16T02:43:13.896Z,0
2018-08-16T02:44:23.356Z,0
2018-08-16T02:45:33.060Z,0
2018-08-16T02:46:43.020Z,0
2018-08-16T02:47:52.983Z,0
2018-08-16T02:49:02.957Z,0
2018-08-16T02:50:12.941Z,0
2018-08-16T02:51:22.646Z,0
2018-08-16T02:52:32.616Z,0
2018-08-16T02:53:42.581Z,0
2018-08-16T02:54:52.289Z,0
2018-08-16T02:56:02.257Z,0
2018-08-16T02:57:12.218Z,0
2018-08-16T02:58:22.416Z,0
2018-08-16T02:59:32.421Z,0
2018-08-16T03:00:42.133Z,0
2018-08-16T03:01:52.112Z,0
2018-08-16T03:03:02.074Z,0
2018-08-16T03:04:11.785Z,0
2018-08-16T03:05:21.497Z,0
2018-08-16T03:06:31.476Z,0
2018-08-16T03:07:41.449Z,0
2018-08-16T03:08:51.422Z,0
2018-08-16T03:10:01.385Z,0
2018-08-16T03:11:11.096Z,0
2018-08-16T03:12:21.093Z,0
2018-08-16T03:13:30.805Z,0
2018-08-16T03:14:40.515Z,0
2018-08-16T03:15:50.472Z,0
2018-08-16T03:17:00.422Z,0
2018-08-16T03:18:10.127Z,0
2018-08-16T03:19:19.833Z,0
2018-08-16T03:20:29.291Z,0
2018-08-16T03:21:38.994Z,0
2018-08-16T03:22:48.969Z,0
2018-08-16T03:23:58.932Z,0
2018-08-16T03:25:08.889Z,0
2018-08-16T03:26:18.847Z,0
2018-08-16T03:27:28.565Z,0
2018-08-16T03:28:38.263Z,0
2018-08-16T03:29:48.228Z,0
2018-08-16T03:30:58.220Z,0
2018-08-16T03:32:08.216Z,0
2018-08-16T03:33:18.184Z,0
2018-08-16T03:34:28.153Z,0
2018-08-16T03:35:37.876Z,0
2018-08-16T03:36:47.596Z,0
2018-08-16T03:37:57.618Z,0
2018-08-16T03:39:07.586Z,0
2018-08-16T03:40:17.560Z,0
2018-08-16T03:41:27.016Z,5
2018-08-16T03:42:36.735Z,5
2018-08-16T03:43:46.697Z,5
2018-08-16T03:44:56.671Z,5
2018-08-16T03:46:06.635Z,5
2018-08-16T03:47:16.598Z,5
2018-08-16T03:48:26.515Z,10
2018-08-16T03:49:36.492Z,10
2018-08-16T03:50:46.455Z,10
2018-08-16T03:51:56.423Z,10
2018-08-16T03:53:06.135Z,15
2018-08-16T03:54:15.334Z,15
2018-08-16T03:55:25.289Z,15
2018-08-16T03:56:35.250Z,15
2018-08-16T03:57:44.958Z,20
2018-08-16T03:58:54.665Z,20
2018-08-16T04:00:04.375Z,25
2018-08-16T04:01:14.341Z,25
2018-08-16T04:10:41.899Z,40
2018-08-16T04:11:51.608Z,45
2018-08-16T04:13:01.580Z,45
2018-08-16T04:14:11.552Z,50
2018-08-16T04:15:21.513Z,50
2018-08-16T04:16:31.214Z,55
2018-08-16T04:17:41.209Z,55
2018-08-16T04:18:51.307Z,60
2018-08-16T04:20:01.016Z,60
2018-08-16T04:21:10.983Z,65
2018-08-16T04:22:20.942Z,65
2018-08-16T04:23:30.689Z,70
2018-08-16T04:24:40.671Z,70
2018-08-16T04:25:50.634Z,75
2018-08-16T04:27:00.600Z,75
2018-08-16T04:28:10.559Z,80
2018-08-16T04:29:20.145Z,80
2018-08-16T04:30:30.109Z,85
2018-08-16T04:31:39.814Z,85
2018-08-16T04:32:49.779Z,90
2018-08-16T04:33:59.477Z,90
2018-08-16T04:35:09.805Z,95
2018-08-16T04:36:19.543Z,95
2018-08-16T04:37:29.504Z,100
2018-08-16T04:38:39.207Z,100
2018-08-16T04:39:49.181Z,105
2018-08-16T04:40:58.894Z,105
2018-08-16T04:42:09.289Z,110
2018-08-16T04:43:19.249Z,110
2018-08-16T04:44:29.230Z,115
2018-08-16T04:45:38.941Z,115
2018-08-16T04:46:48.662Z,120
2018-08-16T04:47:58.131Z,120
2018-08-16T04:49:08.106Z,125
2018-08-16T04:50:18.067Z,125
2018-08-16T04:51:28.032Z,130
2018-08-16T04:52:38.015Z,130
2018-08-16T04:53:47.976Z,135
2018-08-16T04:54:57.693Z,135
2018-08-16T04:56:07.658Z,135
2018-08-16T04:57:17.624Z,140
2018-08-16T04:58:27.595Z,140
2018-08-16T04:59:37.302Z,140
2018-08-16T05:00:47.268Z,145
2018-08-16T05:01:56.977Z,145
2018-08-16T05:03:06.936Z,145
2018-08-16T05:04:16.382Z,145
2018-08-16T05:05:26.339Z,150
2018-08-16T05:06:36.301Z,150
2018-08-16T05:07:46.295Z,155
2018-08-16T05:08:56.020Z,155
2018-08-16T05:10:05.751Z,155
2018-08-16T05:11:16.251Z,160
2018-08-16T05:12:26.214Z,160
2018-08-16T05:13:35.658Z,165
2018-08-16T05:14:45.619Z,165
2018-08-16T05:15:55.579Z,170
2018-08-16T05:17:05.557Z,170
2018-08-16T05:18:15.531Z,170
2018-08-16T05:19:25.507Z,175
2018-08-16T05:20:35.271Z,175
2018-08-16T05:21:44.982Z,175
2018-08-16T05:22:55.006Z,180
2018-08-16T05:24:05.406Z,180
2018-08-16T05:25:15.383Z,185
2018-08-16T05:26:25.096Z,185
2018-08-16T05:27:34.797Z,190
2018-08-16T05:28:44.761Z,190
2018-08-16T05:29:54.766Z,190
2018-08-16T05:31:04.468Z,195
2018-08-16T05:32:14.186Z,195
2018-08-16T05:33:23.891Z,195
2018-08-16T05:34:33.347Z,200
2018-08-16T05:35:43.320Z,200
2018-08-16T05:36:53.277Z,205
2018-08-16T05:38:02.979Z,205
2018-08-16T05:39:12.970Z,210
2018-08-16T05:40:23.013Z,210
2018-08-16T05:41:32.726Z,215
2018-08-16T05:42:42.698Z,215
2018-08-16T05:43:52.668Z,220
2018-08-16T05:45:02.676Z,220
2018-08-16T05:46:12.386Z,220
2018-08-16T05:47:22.376Z,225
2018-08-16T05:48:31.821Z,225
2018-08-16T05:49:41.783Z,230
2018-08-16T05:50:51.849Z,230
2018-08-16T05:52:01.920Z,235
2018-08-16T05:53:11.889Z,235
2018-08-16T05:54:21.864Z,240
2018-08-16T05:55:31.326Z,240
2018-08-16T05:56:41.037Z,245
2018-08-16T05:57:50.739Z,245
2018-08-16T05:59:00.714Z,250
2018-08-16T06:00:10.442Z,250
2018-08-16T06:01:20.407Z,255
2018-08-16T06:02:30.364Z,255
2018-08-16T06:03:40.062Z,260
2018-08-16T06:04:50.025Z,260
2018-08-16T06:06:00.013Z,260
2018-08-16T06:07:09.982Z,265
2018-08-16T06:08:19.956Z,270
2018-08-16T06:09:29.918Z,270
2018-08-16T06:10:39.924Z,275
2018-08-16T06:11:49.895Z,275
2018-08-16T06:12:59.879Z,280
2018-08-16T06:14:09.891Z,280
2018-08-16T06:15:19.951Z,280
2018-08-16T06:16:29.986Z,285
2018-08-16T06:17:39.953Z,285
2018-08-16T06:18:49.946Z,290
2018-08-16T06:19:59.656Z,290
2018-08-16T06:21:09.637Z,295
2018-08-16T06:22:19.624Z,295
2018-08-16T06:23:29.652Z,295
2018-08-16T06:24:39.387Z,300
2018-08-16T06:25:49.093Z,300
2018-08-16T06:26:59.064Z,305
2018-08-16T06:28:09.040Z,305
2018-08-16T06:29:19.008Z,310
2018-08-16T06:30:29.001Z,310
2018-08-16T06:31:38.632Z,310
2018-08-16T06:32:48.632Z,315
2018-08-16T06:33:58.612Z,315
2018-08-16T06:35:08.638Z,315
2018-08-16T06:36:18.400Z,320
2018-08-16T06:37:28.122Z,320
2018-08-16T06:38:38.149Z,325
2018-08-16T06:39:47.854Z,325
2018-08-16T06:40:57.587Z,330
2018-08-16T06:42:07.034Z,330
2018-08-16T06:43:16.763Z,330
2018-08-16T06:44:26.730Z,335
2018-08-16T06:45:36.709Z,330
2018-08-16T06:46:46.759Z,335
2018-08-16T06:47:56.743Z,335
2018-08-16T06:49:06.712Z,340
2018-08-16T06:50:16.439Z,340
2018-08-16T06:51:26.420Z,345
2018-08-16T06:52:36.483Z,345
2018-08-16T06:53:46.497Z,345
2018-08-16T06:54:56.461Z,350
2018-08-16T06:56:06.491Z,350
2018-08-16T06:57:16.453Z,355
2018-08-16T06:58:26.888Z,355
2018-08-16T06:59:36.710Z,355
2018-08-16T07:00:46.690Z,360
2018-08-16T07:01:56.394Z,360
2018-08-16T07:03:06.359Z,360
2018-08-16T07:04:16.331Z,365
2018-08-16T07:05:26.048Z,365
2018-08-16T07:06:36.030Z,370
2018-08-16T07:07:45.990Z,370
2018-08-16T07:08:55.966Z,370
2018-08-16T07:10:05.699Z,370
2018-08-16T07:11:15.690Z,375
2018-08-16T07:12:26.454Z,375
2018-08-16T07:13:36.538Z,375
2018-08-16T07:14:46.243Z,380
2018-08-16T07:15:56.224Z,380
2018-08-16T07:17:08.288Z,390
2018-08-16T07:18:17.897Z,385
2018-08-16T07:19:29.912Z,385
2018-08-16T07:20:40.872Z,390
2018-08-16T07:21:51.498Z,390
2018-08-16T07:23:03.808Z,390
2018-08-16T07:24:14.538Z,390
2018-08-16T07:25:24.271Z,395
2018-08-16T07:26:33.982Z,395
2018-08-16T07:27:43.992Z,395
2018-08-16T07:28:53.961Z,400
2018-08-16T07:30:04.324Z,400
2018-08-16T07:31:14.322Z,400
2018-08-16T07:32:24.355Z,405
2018-08-16T07:33:34.373Z,405
2018-08-16T07:34:44.103Z,410
2018-08-16T07:35:53.839Z,410
2018-08-16T07:37:03.574Z,410
2018-08-16T07:38:13.279Z,415
2018-08-16T07:39:23.262Z,415
2018-08-16T07:40:32.992Z,420
2018-08-16T07:41:42.697Z,420
2018-08-16T07:42:52.154Z,420
2018-08-16T07:44:01.606Z,425
2018-08-16T07:45:11.606Z,425
2018-08-16T07:46:22.787Z,430
2018-08-16T07:47:32.776Z,430
2018-08-16T07:48:42.482Z,430
2018-08-16T07:49:52.712Z,435
2018-08-16T07:51:02.590Z,435
2018-08-16T07:52:13.183Z,440
2018-08-16T07:53:23.155Z,440
2018-08-16T07:54:33.231Z,440
2018-08-16T07:55:43.200Z,445
2018-08-16T07:56:52.992Z,445
2018-08-16T07:58:02.997Z,450
2018-08-16T07:59:12.999Z,450
2018-08-16T08:00:22.995Z,460
2018-08-16T08:01:32.702Z,455
2018-08-16T08:02:42.679Z,460
2018-08-16T08:03:52.392Z,460
2018-08-16T08:05:02.118Z,465
2018-08-16T08:06:12.156Z,465
2018-08-16T08:07:21.875Z,470
2018-08-16T08:08:31.953Z,470
2018-08-16T08:09:42.477Z,475
2018-08-16T08:10:52.285Z,475
2018-08-16T08:12:01.767Z,480
2018-08-16T08:13:11.758Z,480
2018-08-16T08:14:21.466Z,485
2018-08-16T08:15:31.385Z,485
2018-08-16T08:16:41.460Z,490
2018-08-16T08:17:51.190Z,490
2018-08-16T08:19:01.176Z,495
2018-08-16T08:20:11.163Z,495
2018-08-16T08:21:20.898Z,500
2018-08-16T08:22:30.617Z,500
2018-08-16T08:23:40.348Z,505
2018-08-16T08:24:50.324Z,505
2018-08-16T08:26:00.297Z,505
2018-08-16T08:27:10.019Z,510
2018-08-16T08:28:19.996Z,615
2018-08-16T08:29:29.216Z,890
2018-08-16T08:30:39.211Z,910
2018-08-16T08:31:49.400Z,925
2018-08-16T08:32:59.391Z,955
2018-08-16T08:34:09.106Z,945
2018-08-16T08:35:18.563Z,990
2018-08-16T08:36:28.531Z,1030
2018-08-16T08:37:38.006Z,990
2018-08-16T08:38:47.983Z,1015
2018-08-16T08:39:58.035Z,1035
2018-08-16T08:41:08.030Z,1035
2018-08-16T08:42:17.998Z,1055
2018-08-16T08:43:27.967Z,1110
2018-08-16T08:44:37.948Z,1070
2018-08-16T08:45:47.932Z,1085
2018-08-16T08:46:57.903Z,1145
2018-08-16T08:48:07.880Z,1120
2018-08-16T08:49:17.864Z,1165
2018-08-16T08:50:27.709Z,1210
2018-08-16T08:51:37.435Z,1160
2018-08-16T08:52:47.419Z,1190
2018-08-16T08:53:57.129Z,1200
2018-08-16T08:55:06.847Z,1195
2018-08-16T08:56:16.567Z,1200
2018-08-16T08:57:26.288Z,1215
2018-08-16T08:58:36.276Z,1265
2018-08-16T08:59:46.265Z,1315
2018-08-16T09:00:56.230Z,1225
2018-08-16T09:02:05.967Z,1295
2018-08-16T09:03:15.986Z,1315
2018-08-16T09:04:25.697Z,1360
2018-08-16T09:05:35.410Z,1295
2018-08-16T09:06:45.439Z,1325
2018-08-16T09:07:55.424Z,1350
2018-08-16T09:09:05.422Z,1285
2018-08-16T09:10:15.401Z,1495
2018-08-16T09:11:25.378Z,1415
2018-08-16T09:12:35.383Z,1415
2018-08-16T09:13:45.268Z,1410
2018-08-16T09:14:55.617Z,1485
2018-08-16T09:16:05.603Z,1475
2018-08-16T09:17:15.571Z,1440
2018-08-16T09:18:25.547Z,1440
2018-08-16T09:19:35.555Z,1450
2018-08-16T09:20:45.566Z,1435
2018-08-16T09:21:55.309Z,1475
2018-08-16T09:23:05.285Z,1485
2018-08-16T09:24:15.523Z,1655
2018-08-16T09:25:25.503Z,1595
2018-08-16T09:26:35.494Z,1540
2018-08-16T09:27:45.474Z,1560
2018-08-16T09:28:55.467Z,1515
2018-08-16T09:30:05.450Z,1550
2018-08-16T09:31:15.855Z,1600
2018-08-16T09:32:25.946Z,1615
2018-08-16T09:33:35.929Z,1600
2018-08-16T09:34:45.977Z,1675
2018-08-16T09:35:55.957Z,1690
2018-08-16T09:37:05.444Z,1635
2018-08-16T09:38:15.178Z,1575
2018-08-16T09:39:25.806Z,1590
2018-08-16T09:40:35.812Z,1710
2018-08-16T09:41:45.850Z,1700
2018-08-16T09:42:55.843Z,1715
2018-08-16T09:44:05.597Z,1690
2018-08-16T09:45:15.807Z,1710
2018-08-16T09:46:25.597Z,1755
2018-08-16T09:47:35.325Z,1795
2018-08-16T09:48:45.330Z,1815
2018-08-16T09:49:54.792Z,1850
2018-08-16T09:51:04.767Z,1725
2018-08-16T09:52:14.466Z,1785
2018-08-16T09:53:24.181Z,1885
2018-08-16T09:54:34.169Z,1785
2018-08-16T09:55:43.899Z,1810
2018-08-16T09:56:53.617Z,1795
2018-08-16T09:58:03.340Z,1825
2018-08-16T09:59:13.323Z,1845
2018-08-16T10:00:23.309Z,1840
2018-08-16T10:01:33.300Z,1860
2018-08-16T10:02:43.275Z,1885
2018-08-16T10:03:53.254Z,2115
2018-08-16T10:05:02.981Z,1985
2018-08-16T10:06:12.975Z,1975
2018-08-16T10:07:22.972Z,1915
2018-08-16T10:08:32.958Z,1905
2018-08-16T10:09:42.967Z,1995
2018-08-16T10:10:52.707Z,2090
2018-08-16T10:12:02.683Z,2030
2018-08-16T10:13:12.397Z,1895
2018-08-16T10:14:22.420Z,1990
2018-08-16T10:15:32.420Z,2065
2018-08-16T10:16:41.892Z,2145
2018-08-16T10:17:51.896Z,2100
2018-08-16T10:19:01.630Z,2110
2018-08-16T10:20:11.618Z,2120
2018-08-16T10:21:21.600Z,2105
2018-08-16T10:22:31.386Z,2140
2018-08-16T10:23:41.381Z,2110
2018-08-16T10:24:51.164Z,2170
2018-08-16T10:26:01.145Z,2215
2018-08-16T10:27:11.815Z,2155
2018-08-16T10:28:21.524Z,2045
2018-08-16T10:29:31.277Z,2185
2018-08-16T10:30:41.010Z,2240
2018-08-16T10:31:50.952Z,2140
2018-08-16T10:33:00.946Z,2080
2018-08-16T10:34:10.938Z,2195
2018-08-16T10:35:20.921Z,2275
2018-08-16T10:36:30.905Z,2195
2018-08-16T10:37:40.635Z,2230
2018-08-16T10:38:50.618Z,2275
2018-08-16T10:40:00.598Z,2375
2018-08-16T10:41:10.581Z,2345
2018-08-16T10:42:20.317Z,2270
2018-08-16T10:43:30.040Z,2315
2018-08-16T10:44:40.426Z,2385
2018-08-16T10:45:50.153Z,2425
2018-08-16T10:47:00.137Z,2400
2018-08-16T10:48:10.121Z,2360
2018-08-16T10:49:20.144Z,2390
2018-08-16T10:50:30.120Z,2400
2018-08-16T10:51:40.122Z,2400
2018-08-16T10:52:49.857Z,2445
2018-08-16T10:53:59.308Z,2385
2018-08-16T10:55:09.298Z,2380
2018-08-16T10:56:19.309Z,2405
2018-08-16T10:57:29.306Z,2445
2018-08-16T10:58:38.773Z,2485
2018-08-16T10:59:48.509Z,2420
2018-08-16T11:00:58.241Z,2410
2018-08-16T11:02:07.968Z,2385
2018-08-16T11:03:17.718Z,2350
2018-08-16T11:04:27.687Z,2395
2018-08-16T11:05:37.666Z,2605
2018-08-16T11:06:47.657Z,2570
2018-08-16T11:07:57.643Z,2645
2018-08-16T11:09:07.365Z,2530
2018-08-16T11:10:17.093Z,2405
2018-08-16T11:11:27.191Z,2485
2018-08-16T11:12:36.905Z,2555
2018-08-16T11:13:46.891Z,2670
2018-08-16T11:14:56.612Z,2705
2018-08-16T11:16:06.667Z,2625
2018-08-16T11:17:16.654Z,2605
2018-08-16T11:18:26.391Z,2565
2018-08-16T11:19:36.112Z,2555
2018-08-16T11:20:46.087Z,2650
2018-08-16T11:21:56.067Z,2690
2018-08-16T11:23:06.060Z,2700
2018-08-16T11:24:16.052Z,2685
2018-08-16T11:25:26.045Z,2815
2018-08-16T11:26:36.039Z,2605
2018-08-16T11:27:46.018Z,2540
2018-08-16T11:28:56.005Z,2780
2018-08-16T11:30:05.992Z,2765
2018-08-16T11:31:16.006Z,2855
2018-08-16T11:32:25.741Z,2780
2018-08-16T11:33:35.721Z,2755
2018-08-16T11:34:45.483Z,2740
2018-08-16T11:35:55.233Z,2715
2018-08-16T11:37:04.955Z,2645
2018-08-16T11:38:15.031Z,2610
2018-08-16T11:39:25.040Z,2710
2018-08-16T11:40:35.075Z,2795
2018-08-16T11:41:45.359Z,2820
2018-08-16T11:42:55.372Z,2775
2018-08-16T11:44:05.367Z,2805
2018-08-16T11:45:15.365Z,2820
2018-08-16T11:46:24.850Z,2790
2018-08-16T11:47:34.838Z,2825
2018-08-16T11:48:44.575Z,2890
2018-08-16T11:49:54.558Z,2860
2018-08-16T11:51:04.290Z,2800
2018-08-16T11:52:14.262Z,2815
2018-08-16T11:53:23.977Z,2820
2018-08-16T11:54:33.970Z,2845
2018-08-16T11:55:43.975Z,2975
2018-08-16T11:56:53.693Z,2865
2018-08-16T11:58:03.676Z,2895
2018-08-16T11:59:13.398Z,2935
2018-08-16T12:00:23.377Z,3000
2018-08-16T12:01:33.362Z,3045
2018-08-16T12:02:42.588Z,2940
2018-08-16T12:03:52.570Z,2900
2018-08-16T12:05:02.564Z,2870
2018-08-16T12:06:12.645Z,2845
2018-08-16T12:07:22.668Z,2880
2018-08-16T12:08:32.659Z,2910
2018-08-16T12:09:42.140Z,2900
2018-08-16T12:10:52.129Z,2935
2018-08-16T12:12:02.133Z,3080
2018-08-16T12:13:12.112Z,3030
2018-08-16T12:14:22.108Z,2965
2018-08-16T12:15:32.254Z,2985
2018-08-16T12:16:41.771Z,2920
2018-08-16T12:17:51.745Z,2905
2018-08-16T12:19:01.241Z,2900
2018-08-16T12:20:10.976Z,3125
2018-08-16T12:21:20.878Z,3235
2018-08-16T12:22:30.603Z,3060
2018-08-16T12:23:40.345Z,2930
2018-08-16T12:24:50.071Z,2870
2018-08-16T12:25:59.812Z,2935
2018-08-16T12:27:09.804Z,3010
2018-08-16T12:28:19.521Z,2980
2018-08-16T12:29:29.507Z,2955
2018-08-16T12:30:39.490Z,3025
2018-08-16T12:31:49.570Z,3035
2018-08-16T12:32:59.566Z,3060
2018-08-16T12:34:09.542Z,3040
2018-08-16T12:35:19.271Z,2965
2018-08-16T12:36:29.004Z,2945
2018-08-16T12:37:39.105Z,2955
2018-08-16T12:38:49.130Z,2955
2018-08-16T12:39:58.831Z,3130
2018-08-16T12:41:08.853Z,3090
2018-08-16T12:42:18.449Z,3025
2018-08-16T12:43:28.024Z,3005
2018-08-16T12:44:38.038Z,3005
2018-08-16T12:45:48.055Z,2900
2018-08-16T12:46:57.778Z,3015
2018-08-16T12:48:07.748Z,3120
2018-08-16T12:49:17.730Z,3030
2018-08-16T12:50:27.462Z,3045
2018-08-16T12:51:36.396Z,3055
2018-08-16T12:52:46.358Z,3020
2018-08-16T12:53:56.362Z,3065
2018-08-16T12:55:06.339Z,3045
2018-08-16T12:56:16.054Z,3025
2018-08-16T12:57:26.036Z,2900
2018-08-16T12:58:35.763Z,2970
2018-08-16T12:59:45.487Z,3030
2018-08-16T13:00:55.479Z,3305
2018-08-16T13:02:05.873Z,3355
2018-08-16T13:03:15.615Z,3180
2018-08-16T13:04:25.604Z,3040
2018-08-16T13:05:35.614Z,3125
2018-08-16T13:06:45.355Z,3190
2018-08-16T13:07:55.351Z,3110
2018-08-16T13:09:05.813Z,3155
2018-08-16T13:10:15.555Z,3210
2018-08-16T13:11:25.533Z,3195
2018-08-16T13:12:35.534Z,3010
2018-08-16T13:13:45.262Z,3065
2018-08-16T13:14:55.533Z,3150
2018-08-16T13:16:05.288Z,3070
2018-08-16T13:17:15.291Z,2980
2018-08-16T13:18:24.786Z,3035
2018-08-16T13:19:34.761Z,3030
2018-08-16T13:20:44.763Z,3085
2018-08-16T13:21:54.757Z,3060
2018-08-16T13:23:04.481Z,2990
2018-08-16T13:24:14.218Z,2935
2018-08-16T13:25:24.217Z,3070
2018-08-16T13:26:34.226Z,3105
2018-08-16T13:27:44.898Z,3030
2018-08-16T13:28:54.966Z,3005
2018-08-16T13:30:05.127Z,2945
2018-08-16T13:31:15.395Z,2940
2018-08-16T13:32:25.180Z,2960
2018-08-16T13:33:35.168Z,2990
2018-08-16T13:34:45.160Z,2990
2018-08-16T13:35:55.140Z,3030
2018-08-16T13:37:05.386Z,3020
2018-08-16T13:38:15.182Z,2965
2018-08-16T13:39:24.657Z,3120
2018-08-16T13:40:33.867Z,3180
2018-08-16T13:41:43.587Z,3205
2018-08-16T13:42:53.306Z,3345
2018-08-16T13:44:03.308Z,3270
2018-08-16T13:45:13.289Z,3025
2018-08-16T13:46:23.296Z,2870
2018-08-16T13:47:33.294Z,2800
2018-08-16T13:48:43.608Z,2885
2018-08-16T13:49:53.302Z,2990
2018-08-16T13:51:03.024Z,3065
2018-08-16T13:52:13.020Z,3090
2018-08-16T13:53:23.090Z,3060
2018-08-16T13:54:33.076Z,3110
2018-08-16T13:55:43.061Z,3095
2018-08-16T13:56:53.053Z,3030
2018-08-16T13:58:02.776Z,2960
2018-08-16T13:59:12.520Z,2775
2018-08-16T14:00:21.744Z,2670
2018-08-16T14:01:31.758Z,2705
2018-08-16T14:02:41.484Z,2790
2018-08-16T14:03:51.478Z,2855
2018-08-16T14:05:00.957Z,2925
2018-08-16T14:06:10.681Z,2850
2018-08-16T14:07:19.884Z,2785
2018-08-16T14:08:29.873Z,2685
2018-08-16T14:09:39.598Z,2670
2018-08-16T14:10:49.339Z,2685
2018-08-16T14:11:59.072Z,2740
2018-08-16T14:13:09.054Z,2735
2018-08-16T14:14:18.534Z,2665
2018-08-16T14:15:28.531Z,2660
2018-08-16T14:16:38.506Z,2710
2018-08-16T14:17:48.227Z,2775
2018-08-16T14:18:58.215Z,2730
2018-08-16T14:20:07.941Z,2710
2018-08-16T14:21:17.922Z,2690
2018-08-16T14:22:27.910Z,2735
2018-08-16T14:23:37.634Z,2755
2018-08-16T14:24:47.115Z,2765
2018-08-16T14:25:57.035Z,2720
2018-08-16T14:27:07.060Z,2760
2018-08-16T14:28:17.053Z,2720
2018-08-16T14:29:27.052Z,2640
2018-08-16T14:30:37.052Z,2630
2018-08-16T14:31:47.020Z,2665
2018-08-16T14:32:57.027Z,2635
2018-08-16T14:34:06.767Z,2580
2018-08-16T14:35:16.754Z,2575
2018-08-16T14:36:26.737Z,2670
2018-08-16T14:37:36.743Z,2700
2018-08-16T14:38:46.707Z,2645
2018-08-16T14:39:56.750Z,2635
2018-08-16T14:41:06.474Z,2600
2018-08-16T14:42:15.953Z,2600
2018-08-16T14:43:25.947Z,2610
2018-08-16T14:44:35.933Z,2560
2018-08-16T14:45:45.668Z,2510
2018-08-16T14:46:55.396Z,2590
2018-08-16T14:48:05.416Z,2525
2018-08-16T14:49:15.430Z,2505
2018-08-16T14:50:25.163Z,2505
2018-08-16T14:51:35.707Z,2510
2018-08-16T14:52:45.699Z,2580
2018-08-16T14:53:55.699Z,2560
2018-08-16T14:55:05.419Z,2475
2018-08-16T14:56:14.891Z,2420
2018-08-16T14:57:24.367Z,2390
2018-08-16T14:58:34.348Z,2345
2018-08-16T14:59:44.333Z,2355
2018-08-16T15:00:54.324Z,2440
2018-08-16T15:02:04.313Z,2495
2018-08-16T15:03:14.304Z,2515
2018-08-16T15:04:24.294Z,2495
2018-08-16T15:05:34.287Z,2400
2018-08-16T15:06:44.269Z,2400
2018-08-16T15:07:53.986Z,2325
2018-08-16T15:09:03.973Z,2250
2018-08-16T15:10:13.991Z,2195
2018-08-16T15:11:23.458Z,2275
2018-08-16T15:12:33.687Z,2280
2018-08-16T15:13:43.680Z,2250
2018-08-16T15:14:53.675Z,2200
2018-08-16T15:16:03.658Z,2190
2018-08-16T15:17:13.631Z,2210
2018-08-16T15:18:23.637Z,2270
2018-08-16T15:19:33.363Z,2195
2018-08-16T15:20:43.342Z,2100
2018-08-16T15:21:53.332Z,2045
2018-08-16T15:23:03.712Z,2075
2018-08-16T15:24:13.688Z,2295
2018-08-16T15:25:23.722Z,2185
2018-08-16T15:26:33.706Z,1960
2018-08-16T15:27:43.429Z,2005
2018-08-16T15:28:53.408Z,2035
2018-08-16T15:30:03.414Z,2015
2018-08-16T15:31:13.416Z,2030
2018-08-16T15:32:24.032Z,2015
2018-08-16T15:33:34.056Z,1965
2018-08-16T15:34:44.045Z,1960
2018-08-16T15:35:54.000Z,1950
2018-08-16T15:37:03.991Z,1915
2018-08-16T15:38:13.969Z,1930
2018-08-16T15:39:23.705Z,2005
2018-08-16T15:40:33.458Z,2040
2018-08-16T15:41:43.451Z,1965
2018-08-16T15:42:53.454Z,1925
2018-08-16T15:44:03.197Z,1905
2018-08-16T15:45:12.921Z,1965
2018-08-16T15:46:22.902Z,1890
2018-08-16T15:47:32.890Z,1800
2018-08-16T15:48:42.615Z,1820
2018-08-16T15:49:52.382Z,1760
2018-08-16T15:51:02.369Z,1800
2018-08-16T15:52:12.354Z,1690
2018-08-16T15:53:22.337Z,1705
2018-08-16T15:54:32.333Z,1770
2018-08-16T15:55:42.320Z,1735
2018-08-16T15:56:52.309Z,1690
2018-08-16T15:58:02.279Z,1635
2018-08-16T15:59:12.598Z,1620
2018-08-16T16:00:22.408Z,1625
2018-08-16T16:01:32.395Z,1570
2018-08-16T16:02:42.363Z,1660
2018-08-16T16:03:52.101Z,1660
2018-08-16T16:05:01.844Z,1610
2018-08-16T16:06:12.345Z,1680
2018-08-16T16:07:22.472Z,1465
2018-08-16T16:08:32.462Z,1220
2018-08-16T16:09:42.117Z,1450
2018-08-16T16:10:51.820Z,1545
2018-08-16T16:12:01.547Z,1500